Aérodrome :
LOGIN :

S'inscrire | Disclaimer

   EN    FR    IT 

 










Légende :    VFR   VFR Marginal   IFR   IFR Intensif   IFR Très Intensif
Visi : 
Plafond : 
>= 8 km
>= 3000ft
5 à 8 km
1000 à 3000 ft
1500m à 5 km
500 à 1000 ft
800 à 1500m
200 à 500 ft
< 800m
< 200 ft
Symboles :   Orages  Brouillard  Fortes neiges  Fortes précipitations  Vent > 20 kt
SIGMETs :   Divers  Orages  Givrage  Turbulence  Onde Orograph.  Cendres Volcan.






- Altitude de l'aérodrome : 242 ft
- Code IATA : DUB


EIDW - Dublin

DERNIER METAR :
  • 011400Z 33004KT 250V050 9999 FEW018 BKN032 17/11 Q1014 NOSIG

METARs EXPIRÉS :
  • 011330Z 36005KT 300V040 9999 FEW018 BKN032 16/09 Q1014 NOSIG
  • 011300Z 35007KT 320V020 9999 FEW018 BKN032 16/09 Q1014 NOSIG
  • 011230Z 33006KT 290V010 9999 FEW018 BKN032 17/08 Q1014 NOSIG
  • 011200Z 33007KT 300V010 9999 FEW018 BKN032 16/08 Q1013 NOSIG
  • 011130Z 31007G17KT 240V360 9999 FEW018 BKN032 15/08 Q1013 NOSIG

TAF TAF EIDW
Valide du 01 à 12h jusqu'au 02 à 12h UTC


011100Z 0112/0212 34009KT 9999 FEW018 BKN032
BECMG 0112/0114 01008KT
BECMG 0115/0117 06008KT
BECMG 0118/0120 VRB03KT
PROB30
TEMPO 0122/0201 -SHRA BKN014
BECMG 0210/0212 25008KT



MET'MAP, la Météo Aéronautique d'un coup d'oeil ! - Copyright ORBIFLY Décembre 2007 - Disclaimer

ORBIFLY MET'MAP TEAM :

Programmation & Développement : Alexandra Zaïnal
Sur une idée originale de : Baudouin d'Aumeries
Assistance à la programmation : Marc-Olivier Méhu
Soutien technique & logistique : Manuel Goepfert

Contact : metmap@orbifly.com




SOURCES & CREDITS :

   NOAA